Aviation Digital Data Service (ADDS)

Output produced by METARs form (2057 UTC 29 May 2017)
found at http://www.aviationweather.gov/adds/metars/
 
TAF SUCA 2918/3018 14008KT 9999 SCT023 TX16/3018Z TN06/3010Z 
     TEMPO 3000/3012 3000 BR BKN007 
     PROB40 
     TEMPO 3006/3012 0800 FG OVC003
       
SUDU 282330Z 2900/2924 15008KT 9999 BKN010 BKN080 TX17/2918Z TN11/2910Z 
     TEMPO 2900/2912 1500 DZ BKN006 OVC020
       
TAF SUMU 2918/3018 17010KT 9999 SCT015 BKN023 TX16/3018Z TN07/3010Z 
     PROB40 
     TEMPO 2918/3000 7000 SHRADZ BKN010 
     PROB40 
     TEMPO 3000/3012 3000 BR BKN007 
     PROB30 
     TEMPO 3006/3012 0800 FG OVC003 
     BECMG 3004/3006 24005KT
       
TAF SUAA 2918/3018 17010KT 9999 SCT015 BKN023 TX16/3018Z TN07/3010Z 
     PROB40 
     TEMPO 2918/3000 7000 SHRADZ BKN010 
     PROB40 
     TEMPO 3000/3012 3000 BR BKN007 
     PROB30 
     TEMPO 3006/3012 0800 FG OVC003 
     BECMG 3004/3006 24005KT
       
TAF SULS 2918/3018 18010KT 9999 SCT015 BKN015 TX16/3018Z TN06/3010Z 
     PROB40 
     TEMPO 2918/3000 7000 SHRADZ BKN010 
     PROB40 
     TEMPO 3000/3012 3000 BR BKN007 
     PROB30 
     TEMPO 3006/3012 0800 FG OVC003 
     BECMG 3004/3006 24010KT
       
TAF SURV 2918/3018 13008KT 9999 BKN010 TX17/3018Z TN07/3010Z 
     PROB40 
     TEMPO 3000/3012 3000 BR BKN007 
     PROB40 
     TEMPO 3006/3012 0800 FG OVC003
       
SUSO 282330Z 2900/2924 15008KT 9999 BKN010 BKN080 TX17/2918Z TN11/2910Z 
     TEMPO 2900/2912 1500 DZ BKN006 OVC020